sensor_id;sensor_type;location;lat;lon;timestamp;P1;durP1;ratioP1;P2;durP2;ratioP2
13641;SDS011;6894;52.196;9.904;2023-07-20T00:00:06;2.60;;;1.43;;
13641;SDS011;6894;52.196;9.904;2023-07-20T00:02:33;2.17;;;1.23;;
13641;SDS011;6894;52.196;9.904;2023-07-20T00:05:00;1.90;;;1.50;;
13641;SDS011;6894;52.196;9.904;2023-07-20T00:07:27;3.10;;;1.43;;
13641;SDS011;6894;52.196;9.904;2023-07-20T00:09:53;3.83;;;1.33;;
13641;SDS011;6894;52.196;9.904;2023-07-20T00:12:21;1.90;;;1.50;;
13641;SDS011;6894;52.196;9.904;2023-07-20T00:14:48;3.57;;;1.60;;
13641;SDS011;6894;52.196;9.904;2023-07-20T00:17:18;2.23;;;1.60;;
13641;SDS011;6894;52.196;9.904;2023-07-20T00:19:45;4.67;;;1.60;;
13641;SDS011;6894;52.196;9.904;2023-07-20T00:22:12;1.77;;;1.33;;
13641;SDS011;6894;52.196;9.904;2023-07-20T00:24:39;1.30;;;1.20;;
13641;SDS011;6894;52.196;9.904;2023-07-20T00:27:05;2.43;;;1.20;;
13641;SDS011;6894;52.196;9.904;2023-07-20T00:29:34;4.83;;;1.67;;
13641;SDS011;6894;52.196;9.904;2023-07-20T00:32:01;2.90;;;1.13;;
13641;SDS011;6894;52.196;9.904;2023-07-20T00:34:30;1.87;;;1.20;;
13641;SDS011;6894;52.196;9.904;2023-07-20T00:36:56;2.97;;;1.00;;
13641;SDS011;6894;52.196;9.904;2023-07-20T00:39:23;3.57;;;1.30;;
13641;SDS011;6894;52.196;9.904;2023-07-20T00:41:50;2.37;;;1.03;;
13641;SDS011;6894;52.196;9.904;2023-07-20T00:44:16;2.67;;;1.20;;
13641;SDS011;6894;52.196;9.904;2023-07-20T00:46:44;1.30;;;1.20;;
13641;SDS011;6894;52.196;9.904;2023-07-20T00:49:11;1.57;;;0.90;;
13641;SDS011;6894;52.196;9.904;2023-07-20T00:51:38;1.70;;;1.50;;
13641;SDS011;6894;52.196;9.904;2023-07-20T00:54:05;3.50;;;1.30;;
13641;SDS011;6894;52.196;9.904;2023-07-20T00:56:31;2.30;;;1.40;;
13641;SDS011;6894;52.196;9.904;2023-07-20T00:58:58;2.10;;;1.53;;
13641;SDS011;6894;52.196;9.904;2023-07-20T01:01:25;1.30;;;1.10;;
13641;SDS011;6894;52.196;9.904;2023-07-20T01:03:53;2.60;;;1.40;;
13641;SDS011;6894;52.196;9.904;2023-07-20T01:06:24;3.13;;;1.60;;
13641;SDS011;6894;52.196;9.904;2023-07-20T01:09:01;2.87;;;1.60;;
13641;SDS011;6894;52.196;9.904;2023-07-20T01:11:36;2.67;;;1.40;;
13641;SDS011;6894;52.196;9.904;2023-07-20T01:14:05;2.30;;;1.40;;
13641;SDS011;6894;52.196;9.904;2023-07-20T01:16:33;7.03;;;2.27;;
13641;SDS011;6894;52.196;9.904;2023-07-20T01:19:01;4.07;;;1.63;;
13641;SDS011;6894;52.196;9.904;2023-07-20T01:21:31;2.07;;;1.13;;
13641;SDS011;6894;52.196;9.904;2023-07-20T01:24:18;2.73;;;1.27;;
13641;SDS011;6894;52.196;9.904;2023-07-20T01:27:23;3.10;;;1.70;;
13641;SDS011;6894;52.196;9.904;2023-07-20T01:30:14;1.57;;;1.20;;
13641;SDS011;6894;52.196;9.904;2023-07-20T01:32:52;1.43;;;1.17;;
13641;SDS011;6894;52.196;9.904;2023-07-20T01:35:21;3.67;;;1.03;;
13641;SDS011;6894;52.196;9.904;2023-07-20T01:37:53;4.50;;;1.07;;
13641;SDS011;6894;52.196;9.904;2023-07-20T01:40:20;3.67;;;1.20;;
13641;SDS011;6894;52.196;9.904;2023-07-20T01:42:50;4.87;;;1.30;;
13641;SDS011;6894;52.196;9.904;2023-07-20T01:45:17;3.13;;;1.03;;
13641;SDS011;6894;52.196;9.904;2023-07-20T01:47:44;1.73;;;1.20;;
13641;SDS011;6894;52.196;9.904;2023-07-20T01:50:12;1.97;;;0.83;;
13641;SDS011;6894;52.196;9.904;2023-07-20T01:52:39;3.00;;;0.90;;
13641;SDS011;6894;52.196;9.904;2023-07-20T01:55:06;3.10;;;0.90;;
13641;SDS011;6894;52.196;9.904;2023-07-20T01:57:33;1.77;;;0.80;;
13641;SDS011;6894;52.196;9.904;2023-07-20T02:00:00;3.33;;;1.20;;
13641;SDS011;6894;52.196;9.904;2023-07-20T02:02:27;4.97;;;1.07;;
13641;SDS011;6894;52.196;9.904;2023-07-20T02:04:54;4.07;;;1.10;;
13641;SDS011;6894;52.196;9.904;2023-07-20T02:07:22;2.70;;;1.00;;
13641;SDS011;6894;52.196;9.904;2023-07-20T02:09:49;3.77;;;1.30;;
13641;SDS011;6894;52.196;9.904;2023-07-20T02:12:16;2.33;;;1.40;;
13641;SDS011;6894;52.196;9.904;2023-07-20T02:14:42;2.87;;;1.37;;
13641;SDS011;6894;52.196;9.904;2023-07-20T02:17:09;4.90;;;1.37;;
13641;SDS011;6894;52.196;9.904;2023-07-20T02:19:36;3.83;;;1.03;;
13641;SDS011;6894;52.196;9.904;2023-07-20T02:22:04;3.83;;;1.20;;
13641;SDS011;6894;52.196;9.904;2023-07-20T02:24:32;4.80;;;1.40;;
13641;SDS011;6894;52.196;9.904;2023-07-20T02:26:59;4.00;;;1.27;;
13641;SDS011;6894;52.196;9.904;2023-07-20T02:29:26;1.47;;;1.20;;
13641;SDS011;6894;52.196;9.904;2023-07-20T02:31:52;2.97;;;1.03;;
13641;SDS011;6894;52.196;9.904;2023-07-20T02:34:19;4.43;;;1.60;;
13641;SDS011;6894;52.196;9.904;2023-07-20T02:36:46;3.83;;;1.60;;
13641;SDS011;6894;52.196;9.904;2023-07-20T02:39:13;5.67;;;1.50;;
13641;SDS011;6894;52.196;9.904;2023-07-20T02:41:41;4.97;;;1.27;;
13641;SDS011;6894;52.196;9.904;2023-07-20T02:44:08;5.03;;;1.10;;
13641;SDS011;6894;52.196;9.904;2023-07-20T02:46:34;5.37;;;0.90;;
13641;SDS011;6894;52.196;9.904;2023-07-20T02:49:01;3.93;;;1.20;;
13641;SDS011;6894;52.196;9.904;2023-07-20T02:51:28;2.13;;;0.80;;
13641;SDS011;6894;52.196;9.904;2023-07-20T02:53:54;4.63;;;1.40;;
13641;SDS011;6894;52.196;9.904;2023-07-20T02:56:21;4.00;;;1.40;;
13641;SDS011;6894;52.196;9.904;2023-07-20T02:58:50;3.43;;;1.17;;
13641;SDS011;6894;52.196;9.904;2023-07-20T03:01:17;3.47;;;1.43;;
13641;SDS011;6894;52.196;9.904;2023-07-20T03:03:44;5.10;;;1.20;;
13641;SDS011;6894;52.196;9.904;2023-07-20T03:06:11;4.37;;;1.27;;
13641;SDS011;6894;52.196;9.904;2023-07-20T03:08:39;2.47;;;1.07;;
13641;SDS011;6894;52.196;9.904;2023-07-20T03:11:11;3.03;;;1.10;;
13641;SDS011;6894;52.196;9.904;2023-07-20T03:13:38;3.67;;;1.07;;
13641;SDS011;6894;52.196;9.904;2023-07-20T03:16:07;3.73;;;1.40;;
13641;SDS011;6894;52.196;9.904;2023-07-20T03:18:36;2.80;;;1.00;;
13641;SDS011;6894;52.196;9.904;2023-07-20T03:21:03;2.53;;;1.07;;
13641;SDS011;6894;52.196;9.904;2023-07-20T03:23:29;2.77;;;1.20;;
13641;SDS011;6894;52.196;9.904;2023-07-20T03:25:56;1.17;;;0.80;;
13641;SDS011;6894;52.196;9.904;2023-07-20T03:28:23;4.53;;;1.03;;
13641;SDS011;6894;52.196;9.904;2023-07-20T03:30:52;3.83;;;1.00;;
13641;SDS011;6894;52.196;9.904;2023-07-20T03:33:21;3.40;;;1.20;;
13641;SDS011;6894;52.196;9.904;2023-07-20T03:35:48;2.67;;;1.10;;
13641;SDS011;6894;52.196;9.904;2023-07-20T03:38:14;5.33;;;1.03;;
13641;SDS011;6894;52.196;9.904;2023-07-20T03:40:48;1.40;;;1.07;;
13641;SDS011;6894;52.196;9.904;2023-07-20T03:43:15;2.33;;;0.90;;
13641;SDS011;6894;52.196;9.904;2023-07-20T03:45:42;3.23;;;0.90;;
13641;SDS011;6894;52.196;9.904;2023-07-20T03:48:09;2.80;;;1.07;;
13641;SDS011;6894;52.196;9.904;2023-07-20T03:50:37;5.70;;;1.17;;
13641;SDS011;6894;52.196;9.904;2023-07-20T03:53:04;1.83;;;0.90;;
13641;SDS011;6894;52.196;9.904;2023-07-20T03:55:30;3.87;;;1.30;;
13641;SDS011;6894;52.196;9.904;2023-07-20T03:57:57;3.43;;;1.10;;
13641;SDS011;6894;52.196;9.904;2023-07-20T04:00:24;5.40;;;1.17;;
13641;SDS011;6894;52.196;9.904;2023-07-20T04:02:51;3.73;;;0.80;;
13641;SDS011;6894;52.196;9.904;2023-07-20T04:05:17;2.40;;;0.70;;
13641;SDS011;6894;52.196;9.904;2023-07-20T04:07:46;4.30;;;0.80;;
13641;SDS011;6894;52.196;9.904;2023-07-20T04:10:12;4.17;;;1.00;;
13641;SDS011;6894;52.196;9.904;2023-07-20T04:12:39;2.03;;;1.10;;
13641;SDS011;6894;52.196;9.904;2023-07-20T04:15:06;4.33;;;1.20;;
13641;SDS011;6894;52.196;9.904;2023-07-20T04:17:34;3.20;;;0.90;;
13641;SDS011;6894;52.196;9.904;2023-07-20T04:20:01;3.73;;;0.77;;
13641;SDS011;6894;52.196;9.904;2023-07-20T04:22:29;5.03;;;1.10;;
13641;SDS011;6894;52.196;9.904;2023-07-20T04:24:57;5.80;;;1.10;;
13641;SDS011;6894;52.196;9.904;2023-07-20T04:27:23;3.33;;;1.00;;
13641;SDS011;6894;52.196;9.904;2023-07-20T04:29:51;4.47;;;1.00;;
13641;SDS011;6894;52.196;9.904;2023-07-20T04:32:18;4.07;;;0.70;;
13641;SDS011;6894;52.196;9.904;2023-07-20T04:34:44;2.70;;;1.00;;
13641;SDS011;6894;52.196;9.904;2023-07-20T04:37:11;3.90;;;1.00;;
13641;SDS011;6894;52.196;9.904;2023-07-20T04:39:38;5.30;;;1.27;;
13641;SDS011;6894;52.196;9.904;2023-07-20T04:42:06;4.67;;;1.30;;
13641;SDS011;6894;52.196;9.904;2023-07-20T04:44:33;4.87;;;1.00;;
13641;SDS011;6894;52.196;9.904;2023-07-20T04:47:00;4.23;;;1.10;;
13641;SDS011;6894;52.196;9.904;2023-07-20T04:49:27;5.07;;;1.00;;
13641;SDS011;6894;52.196;9.904;2023-07-20T04:51:54;2.70;;;1.00;;
13641;SDS011;6894;52.196;9.904;2023-07-20T04:54:21;2.37;;;1.10;;
13641;SDS011;6894;52.196;9.904;2023-07-20T04:56:47;5.47;;;1.13;;
13641;SDS011;6894;52.196;9.904;2023-07-20T04:59:15;3.83;;;1.20;;
13641;SDS011;6894;52.196;9.904;2023-07-20T05:01:42;4.23;;;1.10;;
13641;SDS011;6894;52.196;9.904;2023-07-20T05:04:09;3.43;;;1.20;;
13641;SDS011;6894;52.196;9.904;2023-07-20T05:06:35;3.40;;;1.83;;
13641;SDS011;6894;52.196;9.904;2023-07-20T05:09:03;2.43;;;1.30;;
13641;SDS011;6894;52.196;9.904;2023-07-20T05:11:31;11.53;;;1.97;;
13641;SDS011;6894;52.196;9.904;2023-07-20T05:13:59;4.40;;;1.40;;
13641;SDS011;6894;52.196;9.904;2023-07-20T05:16:27;6.50;;;1.87;;
13641;SDS011;6894;52.196;9.904;2023-07-20T05:18:53;6.57;;;1.97;;
13641;SDS011;6894;52.196;9.904;2023-07-20T05:21:22;1.97;;;1.10;;
13641;SDS011;6894;52.196;9.904;2023-07-20T05:23:49;3.17;;;1.00;;
13641;SDS011;6894;52.196;9.904;2023-07-20T05:26:16;0.70;;;0.60;;
13641;SDS011;6894;52.196;9.904;2023-07-20T05:28:42;0.93;;;0.83;;
13641;SDS011;6894;52.196;9.904;2023-07-20T05:31:09;0.93;;;0.53;;
13641;SDS011;6894;52.196;9.904;2023-07-20T05:33:37;1.23;;;0.70;;
13641;SDS011;6894;52.196;9.904;2023-07-20T05:36:04;1.90;;;0.67;;
13641;SDS011;6894;52.196;9.904;2023-07-20T05:38:31;0.93;;;0.63;;
13641;SDS011;6894;52.196;9.904;2023-07-20T05:40:59;0.50;;;0.50;;
13641;SDS011;6894;52.196;9.904;2023-07-20T05:43:27;0.90;;;0.67;;
13641;SDS011;6894;52.196;9.904;2023-07-20T05:45:54;1.90;;;0.70;;
13641;SDS011;6894;52.196;9.904;2023-07-20T05:48:21;0.63;;;0.63;;
13641;SDS011;6894;52.196;9.904;2023-07-20T05:50:49;3.03;;;0.70;;
13641;SDS011;6894;52.196;9.904;2023-07-20T05:53:16;2.07;;;0.93;;
13641;SDS011;6894;52.196;9.904;2023-07-20T05:55:43;1.87;;;0.97;;
13641;SDS011;6894;52.196;9.904;2023-07-20T05:58:09;2.30;;;0.77;;
13641;SDS011;6894;52.196;9.904;2023-07-20T06:00:36;1.77;;;0.77;;
13641;SDS011;6894;52.196;9.904;2023-07-20T06:03:03;1.13;;;0.87;;
13641;SDS011;6894;52.196;9.904;2023-07-20T06:05:29;1.90;;;0.73;;
13641;SDS011;6894;52.196;9.904;2023-07-20T06:07:58;2.60;;;1.00;;
13641;SDS011;6894;52.196;9.904;2023-07-20T06:10:25;1.83;;;0.90;;
13641;SDS011;6894;52.196;9.904;2023-07-20T06:12:52;2.20;;;1.20;;
13641;SDS011;6894;52.196;9.904;2023-07-20T06:15:24;3.90;;;1.40;;
13641;SDS011;6894;52.196;9.904;2023-07-20T06:17:52;1.17;;;1.07;;
13641;SDS011;6894;52.196;9.904;2023-07-20T06:20:19;2.07;;;1.67;;
13641;SDS011;6894;52.196;9.904;2023-07-20T06:22:46;2.30;;;1.57;;
13641;SDS011;6894;52.196;9.904;2023-07-20T06:25:14;2.30;;;1.63;;
13641;SDS011;6894;52.196;9.904;2023-07-20T06:27:41;2.63;;;2.07;;
13641;SDS011;6894;52.196;9.904;2023-07-20T06:30:09;1.60;;;1.50;;
13641;SDS011;6894;52.196;9.904;2023-07-20T06:32:37;2.23;;;2.03;;
13641;SDS011;6894;52.196;9.904;2023-07-20T06:35:04;2.60;;;1.77;;
13641;SDS011;6894;52.196;9.904;2023-07-20T06:37:31;1.93;;;1.70;;
13641;SDS011;6894;52.196;9.904;2023-07-20T06:39:58;3.30;;;1.90;;
13641;SDS011;6894;52.196;9.904;2023-07-20T06:42:27;2.33;;;2.17;;
13641;SDS011;6894;52.196;9.904;2023-07-20T06:44:53;2.73;;;1.90;;
13641;SDS011;6894;52.196;9.904;2023-07-20T06:47:20;2.17;;;1.90;;
13641;SDS011;6894;52.196;9.904;2023-07-20T06:49:46;2.10;;;1.67;;
13641;SDS011;6894;52.196;9.904;2023-07-20T06:52:13;1.80;;;1.70;;
13641;SDS011;6894;52.196;9.904;2023-07-20T06:54:40;1.50;;;1.40;;
13641;SDS011;6894;52.196;9.904;2023-07-20T06:57:07;2.20;;;1.70;;
13641;SDS011;6894;52.196;9.904;2023-07-20T06:59:35;1.57;;;1.30;;
13641;SDS011;6894;52.196;9.904;2023-07-20T07:02:01;1.97;;;1.70;;
13641;SDS011;6894;52.196;9.904;2023-07-20T07:04:28;2.77;;;1.77;;
13641;SDS011;6894;52.196;9.904;2023-07-20T07:06:55;1.40;;;1.30;;
13641;SDS011;6894;52.196;9.904;2023-07-20T07:09:21;2.93;;;1.53;;
13641;SDS011;6894;52.196;9.904;2023-07-20T07:11:49;2.20;;;1.30;;
13641;SDS011;6894;52.196;9.904;2023-07-20T07:14:18;1.40;;;1.10;;
13641;SDS011;6894;52.196;9.904;2023-07-20T07:16:47;1.50;;;1.20;;
13641;SDS011;6894;52.196;9.904;2023-07-20T07:19:14;2.03;;;1.33;;
13641;SDS011;6894;52.196;9.904;2023-07-20T07:21:40;1.60;;;1.50;;
13641;SDS011;6894;52.196;9.904;2023-07-20T07:24:07;1.60;;;1.50;;
13641;SDS011;6894;52.196;9.904;2023-07-20T07:26:35;1.60;;;1.50;;
13641;SDS011;6894;52.196;9.904;2023-07-20T07:29:01;2.70;;;1.70;;
13641;SDS011;6894;52.196;9.904;2023-07-20T07:31:28;2.63;;;2.00;;
13641;SDS011;6894;52.196;9.904;2023-07-20T07:33:57;1.90;;;1.80;;
13641;SDS011;6894;52.196;9.904;2023-07-20T07:36:24;1.67;;;1.40;;
13641;SDS011;6894;52.196;9.904;2023-07-20T07:38:50;2.00;;;1.80;;
13641;SDS011;6894;52.196;9.904;2023-07-20T07:41:17;2.23;;;1.33;;
13641;SDS011;6894;52.196;9.904;2023-07-20T07:43:44;2.03;;;1.93;;
13641;SDS011;6894;52.196;9.904;2023-07-20T07:46:10;1.90;;;1.80;;
13641;SDS011;6894;52.196;9.904;2023-07-20T07:48:38;2.50;;;1.67;;
13641;SDS011;6894;52.196;9.904;2023-07-20T07:51:06;1.97;;;1.87;;
13641;SDS011;6894;52.196;9.904;2023-07-20T07:53:34;2.10;;;1.90;;
13641;SDS011;6894;52.196;9.904;2023-07-20T07:56:01;1.33;;;1.23;;
13641;SDS011;6894;52.196;9.904;2023-07-20T07:58:29;1.40;;;1.30;;
13641;SDS011;6894;52.196;9.904;2023-07-20T08:00:56;1.63;;;1.30;;
13641;SDS011;6894;52.196;9.904;2023-07-20T08:03:23;1.23;;;1.00;;
13641;SDS011;6894;52.196;9.904;2023-07-20T08:05:49;1.13;;;1.07;;
13641;SDS011;6894;52.196;9.904;2023-07-20T08:08:18;1.10;;;1.10;;
13641;SDS011;6894;52.196;9.904;2023-07-20T08:10:45;1.30;;;1.20;;
13641;SDS011;6894;52.196;9.904;2023-07-20T08:13:12;1.10;;;0.90;;
13641;SDS011;6894;52.196;9.904;2023-07-20T08:15:39;1.10;;;1.00;;
13641;SDS011;6894;52.196;9.904;2023-07-20T08:18:14;1.50;;;0.90;;
13641;SDS011;6894;52.196;9.904;2023-07-20T08:20:43;2.03;;;1.00;;
13641;SDS011;6894;52.196;9.904;2023-07-20T08:23:10;0.83;;;0.73;;
13641;SDS011;6894;52.196;9.904;2023-07-20T08:25:38;1.03;;;0.63;;
13641;SDS011;6894;52.196;9.904;2023-07-20T08:28:08;1.37;;;1.00;;
13641;SDS011;6894;52.196;9.904;2023-07-20T08:30:39;1.10;;;0.80;;
13641;SDS011;6894;52.196;9.904;2023-07-20T08:33:07;0.90;;;0.80;;
13641;SDS011;6894;52.196;9.904;2023-07-20T08:35:34;0.97;;;0.90;;
13641;SDS011;6894;52.196;9.904;2023-07-20T08:38:00;1.27;;;0.70;;
13641;SDS011;6894;52.196;9.904;2023-07-20T08:40:29;1.00;;;0.80;;
13641;SDS011;6894;52.196;9.904;2023-07-20T08:42:57;1.27;;;0.93;;
13641;SDS011;6894;52.196;9.904;2023-07-20T08:45:25;1.80;;;1.10;;
13641;SDS011;6894;52.196;9.904;2023-07-20T08:47:53;1.20;;;1.10;;
13641;SDS011;6894;52.196;9.904;2023-07-20T08:50:22;1.90;;;1.30;;
13641;SDS011;6894;52.196;9.904;2023-07-20T08:52:50;1.73;;;1.30;;
13641;SDS011;6894;52.196;9.904;2023-07-20T08:55:19;1.70;;;1.60;;
13641;SDS011;6894;52.196;9.904;2023-07-20T08:57:47;1.50;;;1.40;;
13641;SDS011;6894;52.196;9.904;2023-07-20T09:00:17;1.47;;;1.30;;
13641;SDS011;6894;52.196;9.904;2023-07-20T09:02:49;1.70;;;1.60;;
13641;SDS011;6894;52.196;9.904;2023-07-20T09:05:17;1.47;;;1.30;;
13641;SDS011;6894;52.196;9.904;2023-07-20T09:07:44;1.27;;;0.90;;
13641;SDS011;6894;52.196;9.904;2023-07-20T09:10:11;1.10;;;1.07;;
13641;SDS011;6894;52.196;9.904;2023-07-20T09:12:39;1.23;;;1.00;;
13641;SDS011;6894;52.196;9.904;2023-07-20T09:15:07;0.80;;;0.80;;
13641;SDS011;6894;52.196;9.904;2023-07-20T09:17:36;0.80;;;0.63;;
13641;SDS011;6894;52.196;9.904;2023-07-20T09:20:04;0.67;;;0.60;;
13641;SDS011;6894;52.196;9.904;2023-07-20T09:22:33;1.30;;;0.70;;
13641;SDS011;6894;52.196;9.904;2023-07-20T09:25:01;0.70;;;0.60;;
13641;SDS011;6894;52.196;9.904;2023-07-20T09:27:34;2.03;;;0.63;;
13641;SDS011;6894;52.196;9.904;2023-07-20T09:30:02;1.37;;;0.77;;
13641;SDS011;6894;52.196;9.904;2023-07-20T09:32:32;1.07;;;0.83;;
13641;SDS011;6894;52.196;9.904;2023-07-20T09:35:06;0.80;;;0.80;;
13641;SDS011;6894;52.196;9.904;2023-07-20T09:37:38;1.70;;;0.90;;
13641;SDS011;6894;52.196;9.904;2023-07-20T09:40:06;1.10;;;0.70;;
13641;SDS011;6894;52.196;9.904;2023-07-20T09:42:34;1.27;;;0.50;;
13641;SDS011;6894;52.196;9.904;2023-07-20T09:45:02;1.53;;;0.70;;
13641;SDS011;6894;52.196;9.904;2023-07-20T09:47:33;0.70;;;0.50;;
13641;SDS011;6894;52.196;9.904;2023-07-20T09:50:04;2.23;;;0.60;;
13641;SDS011;6894;52.196;9.904;2023-07-20T09:52:35;2.20;;;0.60;;
13641;SDS011;6894;52.196;9.904;2023-07-20T09:55:05;1.43;;;0.60;;
13641;SDS011;6894;52.196;9.904;2023-07-20T09:57:32;1.63;;;0.57;;
13641;SDS011;6894;52.196;9.904;2023-07-20T10:00:01;0.60;;;0.37;;
13641;SDS011;6894;52.196;9.904;2023-07-20T10:02:32;0.60;;;0.53;;
13641;SDS011;6894;52.196;9.904;2023-07-20T10:05:01;0.50;;;0.50;;
13641;SDS011;6894;52.196;9.904;2023-07-20T10:07:30;0.60;;;0.50;;
13641;SDS011;6894;52.196;9.904;2023-07-20T10:09:59;0.70;;;0.50;;
13641;SDS011;6894;52.196;9.904;2023-07-20T10:12:29;0.70;;;0.70;;
13641;SDS011;6894;52.196;9.904;2023-07-20T10:14:59;0.70;;;0.70;;
13641;SDS011;6894;52.196;9.904;2023-07-20T10:17:37;0.50;;;0.40;;
13641;SDS011;6894;52.196;9.904;2023-07-20T10:20:17;1.30;;;0.50;;
13641;SDS011;6894;52.196;9.904;2023-07-20T10:22:47;1.63;;;0.50;;
13641;SDS011;6894;52.196;9.904;2023-07-20T10:25:15;0.40;;;0.40;;
13641;SDS011;6894;52.196;9.904;2023-07-20T10:27:45;0.83;;;0.40;;
13641;SDS011;6894;52.196;9.904;2023-07-20T10:30:12;0.67;;;0.50;;
13641;SDS011;6894;52.196;9.904;2023-07-20T10:32:40;0.70;;;0.57;;
13641;SDS011;6894;52.196;9.904;2023-07-20T10:35:14;0.70;;;0.50;;
13641;SDS011;6894;52.196;9.904;2023-07-20T10:37:47;0.77;;;0.40;;
13641;SDS011;6894;52.196;9.904;2023-07-20T10:43:06;0.73;;;0.50;;
13641;SDS011;6894;52.196;9.904;2023-07-20T10:45:36;0.80;;;0.50;;
13641;SDS011;6894;52.196;9.904;2023-07-20T10:48:09;0.40;;;0.40;;
13641;SDS011;6894;52.196;9.904;2023-07-20T10:50:40;1.03;;;0.47;;
13641;SDS011;6894;52.196;9.904;2023-07-20T10:53:12;0.67;;;0.43;;
13641;SDS011;6894;52.196;9.904;2023-07-20T10:55:40;0.63;;;0.30;;
13641;SDS011;6894;52.196;9.904;2023-07-20T10:58:09;1.60;;;0.47;;
13641;SDS011;6894;52.196;9.904;2023-07-20T11:00:37;0.70;;;0.50;;
13641;SDS011;6894;52.196;9.904;2023-07-20T11:03:28;0.97;;;0.50;;
13641;SDS011;6894;52.196;9.904;2023-07-20T11:05:56;0.97;;;0.30;;
13641;SDS011;6894;52.196;9.904;2023-07-20T11:08:41;0.63;;;0.30;;
13641;SDS011;6894;52.196;9.904;2023-07-20T11:11:20;0.87;;;0.30;;
13641;SDS011;6894;52.196;9.904;2023-07-20T11:13:53;0.93;;;0.20;;
13641;SDS011;6894;52.196;9.904;2023-07-20T11:16:20;0.70;;;0.50;;
13641;SDS011;6894;52.196;9.904;2023-07-20T11:18:59;0.90;;;0.30;;
13641;SDS011;6894;52.196;9.904;2023-07-20T11:21:26;1.10;;;0.40;;
13641;SDS011;6894;52.196;9.904;2023-07-20T11:23:54;0.77;;;0.30;;
13641;SDS011;6894;52.196;9.904;2023-07-20T11:26:21;0.90;;;0.40;;
13641;SDS011;6894;52.196;9.904;2023-07-20T11:28:48;0.60;;;0.30;;
13641;SDS011;6894;52.196;9.904;2023-07-20T11:31:16;0.70;;;0.30;;
13641;SDS011;6894;52.196;9.904;2023-07-20T11:33:43;0.30;;;0.30;;
13641;SDS011;6894;52.196;9.904;2023-07-20T11:36:10;0.30;;;0.30;;
13641;SDS011;6894;52.196;9.904;2023-07-20T11:38:37;0.57;;;0.37;;
13641;SDS011;6894;52.196;9.904;2023-07-20T11:41:08;0.57;;;0.53;;
13641;SDS011;6894;52.196;9.904;2023-07-20T11:43:35;0.70;;;0.30;;
13641;SDS011;6894;52.196;9.904;2023-07-20T11:46:04;0.43;;;0.30;;
13641;SDS011;6894;52.196;9.904;2023-07-20T11:48:31;0.67;;;0.30;;
13641;SDS011;6894;52.196;9.904;2023-07-20T11:50:57;0.77;;;0.50;;
13641;SDS011;6894;52.196;9.904;2023-07-20T11:53:24;0.57;;;0.40;;
13641;SDS011;6894;52.196;9.904;2023-07-20T11:55:52;1.43;;;0.50;;
13641;SDS011;6894;52.196;9.904;2023-07-20T11:58:21;0.30;;;0.30;;
13641;SDS011;6894;52.196;9.904;2023-07-20T12:00:47;1.20;;;0.50;;
13641;SDS011;6894;52.196;9.904;2023-07-20T12:03:14;1.00;;;0.40;;
13641;SDS011;6894;52.196;9.904;2023-07-20T12:05:41;0.80;;;0.40;;
13641;SDS011;6894;52.196;9.904;2023-07-20T12:08:08;0.90;;;0.60;;
13641;SDS011;6894;52.196;9.904;2023-07-20T12:10:38;1.10;;;0.40;;
13641;SDS011;6894;52.196;9.904;2023-07-20T12:13:09;2.00;;;0.47;;
13641;SDS011;6894;52.196;9.904;2023-07-20T12:15:38;0.97;;;0.40;;
13641;SDS011;6894;52.196;9.904;2023-07-20T12:18:04;0.70;;;0.50;;
13641;SDS011;6894;52.196;9.904;2023-07-20T12:20:32;1.17;;;0.40;;
13641;SDS011;6894;52.196;9.904;2023-07-20T12:23:01;1.10;;;0.47;;
13641;SDS011;6894;52.196;9.904;2023-07-20T12:25:33;1.10;;;0.70;;
13641;SDS011;6894;52.196;9.904;2023-07-20T12:28:04;1.07;;;0.60;;
13641;SDS011;6894;52.196;9.904;2023-07-20T12:30:31;2.13;;;0.53;;
13641;SDS011;6894;52.196;9.904;2023-07-20T12:32:59;1.33;;;0.60;;
13641;SDS011;6894;52.196;9.904;2023-07-20T12:35:26;1.60;;;0.53;;
13641;SDS011;6894;52.196;9.904;2023-07-20T12:37:53;1.13;;;0.50;;
13641;SDS011;6894;52.196;9.904;2023-07-20T12:40:19;0.37;;;0.37;;
13641;SDS011;6894;52.196;9.904;2023-07-20T12:42:46;1.03;;;0.50;;
13641;SDS011;6894;52.196;9.904;2023-07-20T12:45:13;0.47;;;0.40;;
13641;SDS011;6894;52.196;9.904;2023-07-20T12:47:40;1.53;;;0.30;;
13641;SDS011;6894;52.196;9.904;2023-07-20T12:50:09;1.47;;;0.40;;
13641;SDS011;6894;52.196;9.904;2023-07-20T12:52:36;0.50;;;0.30;;
13641;SDS011;6894;52.196;9.904;2023-07-20T12:55:06;1.43;;;0.50;;
13641;SDS011;6894;52.196;9.904;2023-07-20T12:57:34;0.50;;;0.50;;
13641;SDS011;6894;52.196;9.904;2023-07-20T13:00:01;1.13;;;0.50;;
13641;SDS011;6894;52.196;9.904;2023-07-20T13:02:29;0.53;;;0.50;;
13641;SDS011;6894;52.196;9.904;2023-07-20T13:04:56;1.57;;;0.40;;
13641;SDS011;6894;52.196;9.904;2023-07-20T13:07:30;0.93;;;0.40;;
13641;SDS011;6894;52.196;9.904;2023-07-20T13:09:57;2.60;;;0.50;;
13641;SDS011;6894;52.196;9.904;2023-07-20T13:12:25;1.20;;;0.47;;
13641;SDS011;6894;52.196;9.904;2023-07-20T13:14:52;0.73;;;0.50;;
13641;SDS011;6894;52.196;9.904;2023-07-20T13:17:20;1.73;;;0.60;;
13641;SDS011;6894;52.196;9.904;2023-07-20T13:19:47;1.80;;;0.50;;
13641;SDS011;6894;52.196;9.904;2023-07-20T13:22:13;0.90;;;0.60;;
13641;SDS011;6894;52.196;9.904;2023-07-20T13:24:43;0.50;;;0.30;;
13641;SDS011;6894;52.196;9.904;2023-07-20T13:27:14;1.80;;;0.40;;
13641;SDS011;6894;52.196;9.904;2023-07-20T13:29:41;1.00;;;0.33;;
13641;SDS011;6894;52.196;9.904;2023-07-20T13:32:08;1.00;;;0.50;;
13641;SDS011;6894;52.196;9.904;2023-07-20T13:34:35;0.47;;;0.40;;
13641;SDS011;6894;52.196;9.904;2023-07-20T13:37:02;0.40;;;0.40;;
13641;SDS011;6894;52.196;9.904;2023-07-20T13:39:29;0.80;;;0.40;;
13641;SDS011;6894;52.196;9.904;2023-07-20T13:41:57;2.60;;;0.53;;
13641;SDS011;6894;52.196;9.904;2023-07-20T13:44:26;1.00;;;0.33;;
13641;SDS011;6894;52.196;9.904;2023-07-20T13:46:53;0.90;;;0.30;;
13641;SDS011;6894;52.196;9.904;2023-07-20T13:49:19;2.10;;;0.50;;
13641;SDS011;6894;52.196;9.904;2023-07-20T13:51:46;0.50;;;0.40;;
13641;SDS011;6894;52.196;9.904;2023-07-20T13:54:13;0.60;;;0.30;;
13641;SDS011;6894;52.196;9.904;2023-07-20T13:56:40;0.53;;;0.50;;
13641;SDS011;6894;52.196;9.904;2023-07-20T13:59:08;1.43;;;0.40;;
13641;SDS011;6894;52.196;9.904;2023-07-20T14:01:35;0.73;;;0.30;;
13641;SDS011;6894;52.196;9.904;2023-07-20T14:04:02;1.87;;;0.30;;
13641;SDS011;6894;52.196;9.904;2023-07-20T14:06:29;0.60;;;0.40;;
13641;SDS011;6894;52.196;9.904;2023-07-20T14:08:57;1.50;;;0.40;;
13641;SDS011;6894;52.196;9.904;2023-07-20T14:11:24;1.27;;;0.50;;
13641;SDS011;6894;52.196;9.904;2023-07-20T14:13:51;0.30;;;0.30;;
13641;SDS011;6894;52.196;9.904;2023-07-20T14:16:20;0.67;;;0.40;;
13641;SDS011;6894;52.196;9.904;2023-07-20T14:18:47;0.97;;;0.30;;
13641;SDS011;6894;52.196;9.904;2023-07-20T14:21:14;1.20;;;0.30;;
13641;SDS011;6894;52.196;9.904;2023-07-20T14:23:41;1.20;;;0.50;;
13641;SDS011;6894;52.196;9.904;2023-07-20T14:26:07;0.70;;;0.50;;
13641;SDS011;6894;52.196;9.904;2023-07-20T14:28:34;2.17;;;0.60;;
13641;SDS011;6894;52.196;9.904;2023-07-20T14:31:01;0.33;;;0.30;;
13641;SDS011;6894;52.196;9.904;2023-07-20T14:33:29;1.27;;;0.50;;
13641;SDS011;6894;52.196;9.904;2023-07-20T14:35:56;1.77;;;0.50;;
13641;SDS011;6894;52.196;9.904;2023-07-20T14:38:22;1.50;;;0.50;;
13641;SDS011;6894;52.196;9.904;2023-07-20T14:40:49;1.03;;;0.30;;
13641;SDS011;6894;52.196;9.904;2023-07-20T14:43:16;0.63;;;0.37;;
13641;SDS011;6894;52.196;9.904;2023-07-20T14:45:43;1.67;;;0.60;;
13641;SDS011;6894;52.196;9.904;2023-07-20T14:48:10;0.70;;;0.40;;
13641;SDS011;6894;52.196;9.904;2023-07-20T14:50:38;0.50;;;0.50;;
13641;SDS011;6894;52.196;9.904;2023-07-20T14:53:05;2.13;;;0.50;;
13641;SDS011;6894;52.196;9.904;2023-07-20T14:55:32;1.07;;;0.50;;
13641;SDS011;6894;52.196;9.904;2023-07-20T14:57:59;1.13;;;0.47;;
13641;SDS011;6894;52.196;9.904;2023-07-20T15:00:26;1.83;;;0.50;;
13641;SDS011;6894;52.196;9.904;2023-07-20T15:02:52;0.73;;;0.40;;
13641;SDS011;6894;52.196;9.904;2023-07-20T15:05:21;0.30;;;0.30;;
13641;SDS011;6894;52.196;9.904;2023-07-20T15:07:50;0.70;;;0.50;;